Ludington, MI

09:35 PM EDT del 28 Settembre 2016 (GMT -0400)
Mason County | | Change Station

Alt. 646 ft 43.96 °N, 86.41 °W | Updated 20 minutes ago

Overcast
Coperto
59 °F
Sembra 59 °F
N
6
Vento Variabile Vento da NNE

Oggi
Massima -- | Minima -- °F
--% Possibilità di precip.
Ieri
Massima -- | Minima -- °F
Precip. -- in
Pressione 30.12 in
Visibilità 10.0 miglia
Nuvole Coperto 11000 ft
Punto di rugiada 52 °F
Umidità 78%
Piovosità 0.52 in
Spessore del manto nevoso Non disponibile.
7:40 AM 7:31 PM
Luna calante, 4% visible
METAR KLDM 290115Z AUTO 02005KT 10SM OVC110 15/11 A3012 RMK AO2 T01520113
Pressione 30.12 in
Visibilità 10.0 miglia
Nuvole Coperto 11000 ft
Punto di rugiada 52 °F
Umidità 78%
Piovosità 0.52 in
Spessore del manto nevoso Non disponibile.
7:40 AM 7:31 PM
Luna calante, 4% visible
METAR KLDM 290115Z AUTO 02005KT 10SM OVC110 15/11 A3012 RMK AO2 T01520113

10-Day Weather Forecast

Almanac

Astronomia

Sep. 28, 2016 Alba Tramonto
Ora attuale
Crepuscolo civile
Crepuscolo nautico
Crepuscolo astronomico
Luna
Estensione della luce visibile
Lunghezza del giorno
Tomorrow will be .
, % of the Moon is Illuminated

Gli estremi di oggi

State Highs State Lows

Community

WunderPhotos

Upload Photos

1,942,390 foto caricate!

WunderBlog® & News

Nearby

Qualità dell'aria

  Qualità dell'aria Indice AQ Inquinante
Not available.

Profondità neve

Stazione Profondità Altitudine

Attività sismica

Città  Distanza Mag. Data & Ora
Minimo Magnitudo Mostrato è 2.5.

Temperature delle acque costiere

Località Temperatura

Stations

Stazioni meteo nelle vicinanze

Ubicazione della stazione Temp. Raffreddamento del vento Punto di rugiada Umidità Vento Precip. Alt. Aggiornato Tipo
                   

Watches & Warnings

There are currently no watches in effect.